createdAt,value
2019-05-07T00:01:19.859Z,58.82
2019-05-07T00:04:47.184Z,58.70
2019-05-07T00:08:13.089Z,59.28
2019-05-07T00:11:38.758Z,59.90
2019-05-07T00:15:06.688Z,60.30
2019-05-07T00:18:32.460Z,60.51
2019-05-07T00:22:02.384Z,61.06
2019-05-07T00:25:27.535Z,61.22
2019-05-07T00:28:53.125Z,61.39
2019-05-07T00:32:18.735Z,61.30
2019-05-07T00:35:48.857Z,61.42
2019-05-07T00:39:29.151Z,61.88
2019-05-07T00:43:14.662Z,62.18
2019-05-07T00:46:42.609Z,62.19
2019-05-07T00:50:09.928Z,62.49
2019-05-07T00:53:35.519Z,62.13
2019-05-07T00:57:03.129Z,62.14
2019-05-07T01:00:28.422Z,62.44
2019-05-07T01:03:54.006Z,62.53
2019-05-07T01:07:19.598Z,62.60
2019-05-07T01:10:45.186Z,62.48
2019-05-07T01:14:12.375Z,62.74
2019-05-07T01:17:38.149Z,63.08
2019-05-07T01:21:04.239Z,63.05
2019-05-07T01:24:32.072Z,62.93
2019-05-07T01:27:57.107Z,63.76
2019-05-07T01:31:22.717Z,65.51
2019-05-07T01:34:52.344Z,65.71
2019-05-07T01:38:19.271Z,66.21
2019-05-07T01:41:46.841Z,66.67
2019-05-07T01:45:14.598Z,66.90
2019-05-07T01:48:40.189Z,67.13
2019-05-07T01:52:05.773Z,67.17
2019-05-07T01:55:31.926Z,67.37
2019-05-07T01:58:57.550Z,67.37
2019-05-07T02:02:27.640Z,67.52
2019-05-07T02:06:10.269Z,67.59
2019-05-07T02:09:42.335Z,67.36
2019-05-07T02:13:07.368Z,67.42
2019-05-07T02:16:32.958Z,67.41
2019-05-07T02:19:58.965Z,67.50
2019-05-07T02:23:24.547Z,67.33
2019-05-07T02:26:52.033Z,67.08
2019-05-07T02:30:17.866Z,67.03
2019-05-07T02:33:43.838Z,67.05
2019-05-07T02:37:11.184Z,67.32
2019-05-07T02:40:38.766Z,67.38
2019-05-07T02:44:04.641Z,67.68
2019-05-07T02:47:33.123Z,67.71
2019-05-07T02:51:03.878Z,67.80
2019-05-07T02:54:33.524Z,67.83
2019-05-07T02:57:59.136Z,68.39
2019-05-07T03:01:24.788Z,68.42
2019-05-07T03:04:53.270Z,68.70
2019-05-07T03:08:18.062Z,68.76
2019-05-07T03:11:43.746Z,68.61
2019-05-07T03:15:09.512Z,68.60
2019-05-07T03:18:35.269Z,68.83
2019-05-07T03:22:03.755Z,68.82
2019-05-07T03:25:43.126Z,68.95
2019-05-07T03:29:13.114Z,68.78
2019-05-07T03:32:46.728Z,68.79
2019-05-07T03:36:15.910Z,68.88
2019-05-07T03:39:37.273Z,69.11
2019-05-07T03:43:06.110Z,69.05
2019-05-07T03:46:33.543Z,67.75
2019-05-07T03:49:57.898Z,67.57
2019-05-07T03:53:23.688Z,67.85
2019-05-07T03:56:49.209Z,68.93
2019-05-07T04:00:15.447Z,69.16
2019-05-07T04:03:43.980Z,69.08
2019-05-07T04:07:08.422Z,68.76
2019-05-07T04:10:34.161Z,68.61
2019-05-07T04:14:02.298Z,67.96
2019-05-07T04:17:27.427Z,68.21
2019-05-07T04:20:54.893Z,68.12
2019-05-07T04:24:25.794Z,68.22
2019-05-07T04:28:00.109Z,68.07
2019-05-07T04:31:27.329Z,68.21
2019-05-07T04:35:00.249Z,68.40
2019-05-07T04:38:25.838Z,68.21
2019-05-07T04:41:53.035Z,68.23
2019-05-07T04:45:19.016Z,68.35
2019-05-07T04:48:44.761Z,68.17
2019-05-07T04:52:15.100Z,68.37
2019-05-07T04:55:42.841Z,68.17
2019-05-07T04:59:07.391Z,67.90
2019-05-07T05:02:52.950Z,67.81
2019-05-07T05:06:18.326Z,67.55
2019-05-07T05:09:43.920Z,67.45
2019-05-07T05:13:09.499Z,67.14
2019-05-07T05:16:35.204Z,66.80
2019-05-07T05:20:04.228Z,66.58
2019-05-07T05:23:34.604Z,65.97
2019-05-07T05:27:02.455Z,65.30
2019-05-07T05:30:32.579Z,64.55
2019-05-07T05:33:57.836Z,64.33
2019-05-07T05:37:23.415Z,63.11
2019-05-07T05:40:49.004Z,62.16
2019-05-07T05:44:19.200Z,61.26
2019-05-07T05:47:44.962Z,60.94
2019-05-07T05:51:17.997Z,61.42
2019-05-07T05:54:45.221Z,61.58
2019-05-07T05:58:18.200Z,60.92
2019-05-07T06:01:52.153Z,60.37
2019-05-07T06:05:35.457Z,58.95
2019-05-07T06:09:02.681Z,58.72
2019-05-07T06:12:32.833Z,58.81
2019-05-07T06:16:03.647Z,58.15
2019-05-07T06:19:38.816Z,57.97
2019-05-07T06:23:24.382Z,58.29
2019-05-07T06:26:52.148Z,58.09
2019-05-07T06:30:22.550Z,57.86
2019-05-07T06:33:47.864Z,57.59
2019-05-07T06:37:13.450Z,57.17
2019-05-07T06:40:51.785Z,55.52
2019-05-07T06:44:18.539Z,54.72
2019-05-07T06:47:44.146Z,54.45
2019-05-07T06:51:09.738Z,53.88
2019-05-07T06:54:35.324Z,53.19
2019-05-07T06:58:02.623Z,52.83
2019-05-07T07:01:45.618Z,52.50
2019-05-07T07:05:13.462Z,52.05
2019-05-07T07:08:55.827Z,51.50
2019-05-07T07:12:28.581Z,51.48
2019-05-07T07:15:54.972Z,51.26
2019-05-07T07:19:20.576Z,51.55
2019-05-07T07:22:46.193Z,51.27
2019-05-07T07:26:12.933Z,50.29
2019-05-07T07:29:44.967Z,50.21
2019-05-07T07:33:13.146Z,48.93
2019-05-07T07:37:05.051Z,48.97
2019-05-07T07:40:34.865Z,48.58
2019-05-07T07:44:02.090Z,48.24
2019-05-07T07:47:27.892Z,48.47
2019-05-07T07:50:53.482Z,47.43
2019-05-07T07:54:19.192Z,47.81
2019-05-07T07:57:46.428Z,46.96
2019-05-07T08:01:32.994Z,46.29
2019-05-07T08:04:58.775Z,47.04
2019-05-07T08:08:24.376Z,48.42
2019-05-07T08:11:49.977Z,49.94
2019-05-07T08:15:21.159Z,48.80
2019-05-07T08:18:45.668Z,46.31
2019-05-07T08:22:12.077Z,46.63
2019-05-07T08:25:52.220Z,46.10
2019-05-07T08:29:17.283Z,45.56
2019-05-07T08:32:44.522Z,45.88
2019-05-07T08:36:15.073Z,45.55
2019-05-07T08:39:42.744Z,45.86
2019-05-07T08:43:09.176Z,45.34
2019-05-07T08:46:36.410Z,44.92
2019-05-07T08:50:02.867Z,44.50
2019-05-07T08:53:28.717Z,44.40
2019-05-07T08:56:54.325Z,44.44
2019-05-07T09:00:22.381Z,43.97
2019-05-07T09:03:48.834Z,44.23
2019-05-07T09:07:14.421Z,44.57
2019-05-07T09:10:42.146Z,44.51
2019-05-07T09:14:07.872Z,43.85
2019-05-07T09:17:33.515Z,43.89
2019-05-07T09:20:59.414Z,43.02
2019-05-07T09:24:25.032Z,41.27
2019-05-07T09:27:52.475Z,40.74
2019-05-07T09:31:20.076Z,40.21
2019-05-07T09:34:47.649Z,41.10
2019-05-07T09:38:13.321Z,40.33
2019-05-07T09:41:38.912Z,40.19
2019-05-07T09:45:07.284Z,40.07
2019-05-07T09:48:33.822Z,40.98
2019-05-07T09:51:59.605Z,39.43
2019-05-07T09:55:25.201Z,39.90
2019-05-07T09:58:52.928Z,39.91
2019-05-07T10:02:19.226Z,39.95
2019-05-07T10:05:44.826Z,39.03
2019-05-07T10:09:12.068Z,38.26
2019-05-07T10:12:39.315Z,36.19
2019-05-07T10:16:07.695Z,35.88
2019-05-07T10:19:33.038Z,35.14
2019-05-07T10:22:58.996Z,34.81
2019-05-07T10:26:25.430Z,34.10
2019-05-07T10:29:54.215Z,33.58
2019-05-07T10:33:20.018Z,34.05
2019-05-07T10:36:45.710Z,34.46
2019-05-07T10:40:12.733Z,34.35
2019-05-07T10:43:39.018Z,34.22
2019-05-07T10:47:22.760Z,35.31
2019-05-07T10:50:52.674Z,33.23
2019-05-07T10:54:18.336Z,33.52
2019-05-07T10:57:44.315Z,33.08
2019-05-07T11:01:12.049Z,33.79
2019-05-07T11:04:42.114Z,32.53
2019-05-07T11:08:06.217Z,31.87
2019-05-07T11:11:31.995Z,32.18
2019-05-07T11:14:58.678Z,31.61
2019-05-07T11:18:24.116Z,31.62
2019-05-07T11:21:52.001Z,31.25
2019-05-07T11:25:17.330Z,31.37
2019-05-07T11:28:43.448Z,31.92
2019-05-07T11:32:09.005Z,31.39
2019-05-07T11:35:34.648Z,32.19
2019-05-07T11:39:02.185Z,32.02
2019-05-07T11:42:47.218Z,33.20
2019-05-07T11:46:14.448Z,32.95
2019-05-07T11:49:57.880Z,32.83
2019-05-07T11:53:25.357Z,33.37
2019-05-07T11:56:52.276Z,33.81
2019-05-07T12:00:21.933Z,33.76
2019-05-07T12:03:47.565Z,33.15
2019-05-07T12:07:13.184Z,32.58
2019-05-07T12:10:39.046Z,32.20
2019-05-07T12:14:05.246Z,32.08
2019-05-07T12:17:31.914Z,32.55
2019-05-07T12:20:57.556Z,32.19
2019-05-07T12:24:23.415Z,32.57
2019-05-07T12:27:52.733Z,32.63
2019-05-07T12:31:36.656Z,32.15
2019-05-07T12:35:03.908Z,32.64
2019-05-07T12:38:29.574Z,31.83
2019-05-07T12:41:55.230Z,31.94
2019-05-07T12:45:22.818Z,32.46
2019-05-07T12:48:48.563Z,32.23
2019-05-07T12:52:18.559Z,30.88
2019-05-07T12:55:48.655Z,31.56
2019-05-07T12:59:15.340Z,30.99
2019-05-07T13:02:45.516Z,31.11
2019-05-07T13:06:12.522Z,30.35
2019-05-07T13:09:38.381Z,29.82
2019-05-07T13:13:05.013Z,29.50
2019-05-07T13:16:32.363Z,29.51
2019-05-07T13:19:58.145Z,29.03
2019-05-07T13:23:23.813Z,29.55
2019-05-07T13:26:51.673Z,29.58
2019-05-07T13:30:18.091Z,28.20
2019-05-07T13:33:45.986Z,27.95
2019-05-07T13:37:14.664Z,28.36
2019-05-07T13:40:56.941Z,28.73
2019-05-07T13:44:24.350Z,28.21
2019-05-07T13:47:54.309Z,27.87
2019-05-07T13:51:21.693Z,26.96
2019-05-07T13:54:47.338Z,27.58
2019-05-07T13:58:14.326Z,27.45
2019-05-07T14:01:50.411Z,27.84
2019-05-07T14:05:17.174Z,27.83
2019-05-07T14:08:44.419Z,27.73
2019-05-07T14:12:12.348Z,26.85
2019-05-07T14:15:37.807Z,26.52
2019-05-07T14:19:04.308Z,22.32
2019-05-07T14:22:31.819Z,19.35
2019-05-07T14:25:57.608Z,18.52
2019-05-07T14:29:24.857Z,18.98
2019-05-07T14:33:09.465Z,20.79
2019-05-07T14:36:38.411Z,21.45
2019-05-07T14:40:07.732Z,22.78
2019-05-07T14:43:34.991Z,23.74
2019-05-07T14:47:02.388Z,24.24
2019-05-07T14:50:28.356Z,24.84
2019-05-07T14:53:54.116Z,25.03
2019-05-07T14:57:21.958Z,24.63
2019-05-07T15:00:47.013Z,24.96
2019-05-07T15:04:13.039Z,24.32
2019-05-07T15:07:39.478Z,21.77
2019-05-07T15:11:05.316Z,21.99
2019-05-07T15:14:31.864Z,22.93
2019-05-07T15:18:00.634Z,23.15
2019-05-07T15:21:27.096Z,21.59
2019-05-07T15:24:52.693Z,21.25
2019-05-07T15:28:19.857Z,21.19
2019-05-07T15:32:03.418Z,22.37
2019-05-07T15:35:29.247Z,23.91
2019-05-07T15:38:54.848Z,25.22
2019-05-07T15:42:22.216Z,23.87
2019-05-07T15:45:47.891Z,23.55
2019-05-07T15:49:13.535Z,23.50
2019-05-07T15:52:57.698Z,23.29
2019-05-07T15:56:14.207Z,21.83
2019-05-07T15:59:41.796Z,21.83
2019-05-07T16:03:14.962Z,22.89
2019-05-07T16:06:42.436Z,23.97
2019-05-07T16:10:08.601Z,24.11
2019-05-07T16:13:35.839Z,24.58
2019-05-07T16:17:03.126Z,25.32
2019-05-07T16:20:28.716Z,25.70
2019-05-07T16:23:55.717Z,26.53
2019-05-07T16:27:22.428Z,26.74
2019-05-07T16:30:48.118Z,26.78
2019-05-07T16:34:13.721Z,24.40
2019-05-07T16:37:39.480Z,23.67
2019-05-07T16:41:05.071Z,22.98
2019-05-07T16:44:32.992Z,22.93
2019-05-07T16:48:00.403Z,23.03
2019-05-07T16:51:26.254Z,23.83
2019-05-07T16:54:52.305Z,23.38
2019-05-07T16:58:23.614Z,23.30
2019-05-07T17:01:49.209Z,22.53
2019-05-07T17:05:16.997Z,23.21
2019-05-07T17:08:44.444Z,22.69
2019-05-07T17:12:11.693Z,22.08
2019-05-07T17:15:56.875Z,22.21
2019-05-07T17:19:22.572Z,23.22
2019-05-07T17:22:48.179Z,23.19
2019-05-07T17:26:14.057Z,23.92
2019-05-07T17:29:39.653Z,24.55
2019-05-07T17:33:07.315Z,25.62
2019-05-07T17:36:33.213Z,26.33
2019-05-07T17:39:58.892Z,25.88
2019-05-07T17:43:24.557Z,26.53
2019-05-07T17:46:51.869Z,27.27
2019-05-07T17:50:19.441Z,28.66
2019-05-07T17:53:56.728Z,29.37
2019-05-07T17:57:15.826Z,29.78
2019-05-07T18:00:42.293Z,30.28
2019-05-07T18:04:07.927Z,30.46
2019-05-07T18:07:33.551Z,31.03
2019-05-07T18:11:02.033Z,31.53
2019-05-07T18:14:27.148Z,32.15
2019-05-07T18:17:54.448Z,32.32
2019-05-07T18:21:22.019Z,32.77
2019-05-07T18:24:47.815Z,33.25
2019-05-07T18:28:16.180Z,33.58
2019-05-07T18:31:43.475Z,33.80
2019-05-07T18:35:09.415Z,34.22
2019-05-07T18:38:35.012Z,34.53
2019-05-07T18:42:02.759Z,34.85
2019-05-07T18:45:28.570Z,35.09
2019-05-07T18:48:54.907Z,35.18
2019-05-07T18:52:22.814Z,35.23
2019-05-07T18:55:48.299Z,35.72
2019-05-07T18:59:17.996Z,36.04
2019-05-07T19:02:42.726Z,36.04
2019-05-07T19:06:08.527Z,37.26
2019-05-07T19:09:34.157Z,38.60
2019-05-07T19:12:59.870Z,39.32
2019-05-07T19:16:25.562Z,39.41
2019-05-07T19:19:52.524Z,39.52
2019-05-07T19:23:18.238Z,39.89
2019-05-07T19:26:43.847Z,40.67
2019-05-07T19:30:12.558Z,41.58
2019-05-07T19:33:38.294Z,41.44
2019-05-07T19:37:03.899Z,40.79
2019-05-07T19:40:29.566Z,40.77
2019-05-07T19:43:55.235Z,40.74
2019-05-07T19:47:23.084Z,40.76
2019-05-07T19:50:48.279Z,40.92
2019-05-07T19:54:13.874Z,40.53
2019-05-07T19:57:42.638Z,40.65
2019-05-07T20:01:11.982Z,40.74
2019-05-07T20:04:37.131Z,40.71
2019-05-07T20:08:04.722Z,40.86
2019-05-07T20:11:31.977Z,40.66
2019-05-07T20:14:57.568Z,40.79
2019-05-07T20:18:23.231Z,41.16
2019-05-07T20:21:48.826Z,41.48
2019-05-07T20:25:18.913Z,41.59
2019-05-07T20:28:42.343Z,41.90
2019-05-07T20:32:08.653Z,42.11
2019-05-07T20:35:37.328Z,43.26
2019-05-07T20:39:02.378Z,44.19
2019-05-07T20:42:29.683Z,43.51
2019-05-07T20:45:55.405Z,44.20
2019-05-07T20:49:22.536Z,43.68
2019-05-07T20:52:48.296Z,43.85
2019-05-07T20:56:15.352Z,44.39
2019-05-07T20:59:41.631Z,46.04
2019-05-07T21:03:23.911Z,47.07
2019-05-07T21:06:52.452Z,46.95
2019-05-07T21:10:17.839Z,46.68
2019-05-07T21:13:44.644Z,47.07
2019-05-07T21:17:11.915Z,46.21
2019-05-07T21:20:37.803Z,47.30
2019-05-07T21:24:03.613Z,49.28
2019-05-07T21:27:29.224Z,50.38
2019-05-07T21:30:54.844Z,50.44
2019-05-07T21:34:22.820Z,50.62
2019-05-07T21:37:47.763Z,50.08
2019-05-07T21:41:13.385Z,49.73
2019-05-07T21:44:38.983Z,49.79
2019-05-07T21:48:04.663Z,49.79
2019-05-07T21:51:30.264Z,49.62
2019-05-07T21:54:57.601Z,49.63
2019-05-07T21:58:27.606Z,49.14
2019-05-07T22:01:54.854Z,49.07
2019-05-07T22:05:22.520Z,49.18
2019-05-07T22:08:48.171Z,49.03
2019-05-07T22:12:13.781Z,48.69
2019-05-07T22:15:39.581Z,49.53
2019-05-07T22:19:05.410Z,49.46
2019-05-07T22:22:32.046Z,50.51
2019-05-07T22:25:58.025Z,51.65
2019-05-07T22:29:25.258Z,52.13
2019-05-07T22:32:58.206Z,52.41
2019-05-07T22:36:23.813Z,52.58
2019-05-07T22:39:54.257Z,53.48
2019-05-07T22:43:22.602Z,53.24
2019-05-07T22:46:48.449Z,53.72
2019-05-07T22:50:14.113Z,54.74
2019-05-07T22:53:39.704Z,55.59
2019-05-07T22:57:06.934Z,54.69
2019-05-07T23:00:34.167Z,55.03
2019-05-07T23:04:00.056Z,55.89
2019-05-07T23:07:25.666Z,56.25
2019-05-07T23:10:52.593Z,55.51
2019-05-07T23:14:18.358Z,56.46
2019-05-07T23:17:43.965Z,57.19
2019-05-07T23:21:09.567Z,57.23
2019-05-07T23:24:35.161Z,57.46
2019-05-07T23:28:04.897Z,57.25
2019-05-07T23:31:28.045Z,57.28
2019-05-07T23:34:53.659Z,57.42
2019-05-07T23:38:19.366Z,57.33
2019-05-07T23:41:46.612Z,57.68
2019-05-07T23:45:12.628Z,57.78
2019-05-07T23:48:38.237Z,57.88
2019-05-07T23:52:03.819Z,57.95
2019-05-07T23:55:31.700Z,57.97
2019-05-07T23:58:56.738Z,58.06
